createdAt,value
2017-06-05T00:00:41.025Z,11.50
2017-06-05T00:03:08.482Z,11.50
2017-06-05T00:05:35.949Z,11.30
2017-06-05T00:08:03.402Z,11.20
2017-06-05T00:10:30.857Z,11.10
2017-06-05T00:12:58.431Z,11.00
2017-06-05T00:15:25.992Z,10.90
2017-06-05T00:17:53.459Z,10.90
2017-06-05T00:20:21.722Z,10.80
2017-06-05T00:22:49.205Z,10.80
2017-06-05T00:25:17.421Z,10.80
2017-06-05T00:27:44.884Z,10.80
2017-06-05T00:30:12.367Z,10.80
2017-06-05T00:32:39.822Z,10.70
2017-06-05T00:35:07.378Z,10.70
2017-06-05T00:37:34.848Z,10.70
2017-06-05T00:40:03.079Z,10.70
2017-06-05T00:42:30.535Z,10.60
2017-06-05T00:44:58.026Z,10.60
2017-06-05T00:47:25.478Z,10.80
2017-06-05T00:49:53.045Z,10.90
2017-06-05T00:52:20.498Z,10.90
2017-06-05T00:54:47.971Z,11.00
2017-06-05T00:57:16.227Z,11.00
2017-06-05T00:59:43.694Z,11.00
2017-06-05T01:02:11.963Z,10.90
2017-06-05T01:04:39.422Z,10.90
2017-06-05T01:07:06.884Z,10.90
2017-06-05T01:09:35.112Z,10.90
2017-06-05T01:12:02.575Z,10.90
2017-06-05T01:14:30.040Z,10.80
2017-06-05T01:16:57.498Z,10.70
2017-06-05T01:19:24.969Z,10.60
2017-06-05T01:21:52.435Z,10.50
2017-06-05T01:24:20.708Z,10.40
2017-06-05T01:26:48.179Z,10.40
2017-06-05T01:29:16.412Z,10.50
2017-06-05T01:31:43.883Z,10.50
2017-06-05T01:34:11.344Z,10.70
2017-06-05T01:36:38.803Z,10.70
2017-06-05T01:39:06.367Z,10.70
2017-06-05T01:41:33.923Z,10.80
2017-06-05T01:44:01.483Z,11.00
2017-06-05T01:46:28.948Z,11.10
2017-06-05T01:48:56.408Z,11.10
2017-06-05T01:51:24.662Z,11.10
2017-06-05T01:53:52.125Z,11.10
2017-06-05T01:56:19.691Z,11.10
2017-06-05T01:58:47.145Z,11.20
2017-06-05T02:01:14.606Z,11.10
2017-06-05T02:03:42.835Z,11.20
2017-06-05T02:06:10.299Z,11.10
2017-06-05T02:08:37.813Z,11.30
2017-06-05T02:11:06.024Z,11.30
2017-06-05T02:13:33.479Z,11.20
2017-06-05T02:16:00.976Z,11.30
2017-06-05T02:18:28.435Z,11.30
2017-06-05T02:20:56.666Z,11.50
2017-06-05T02:23:24.137Z,11.50
2017-06-05T02:25:51.599Z,11.60
2017-06-05T02:28:19.171Z,11.70
2017-06-05T02:30:46.636Z,11.80
2017-06-05T02:33:14.095Z,11.90
2017-06-05T02:35:41.550Z,11.90
2017-06-05T02:38:09.785Z,12.20
2017-06-05T02:40:37.276Z,12.10
2017-06-05T02:43:04.802Z,12.20
2017-06-05T02:45:32.259Z,12.20
2017-06-05T02:47:59.724Z,12.20
2017-06-05T02:50:27.186Z,12.40
2017-06-05T02:52:54.638Z,12.40
2017-06-05T02:55:22.220Z,12.20
2017-06-05T02:57:49.683Z,12.20
2017-06-05T03:00:17.243Z,12.00
2017-06-05T03:02:45.512Z,11.90
2017-06-05T03:05:12.968Z,11.90
2017-06-05T03:07:40.427Z,11.90
2017-06-05T03:10:07.887Z,11.90
2017-06-05T03:12:36.115Z,11.90
2017-06-05T03:15:03.600Z,11.90
2017-06-05T03:17:31.069Z,11.80
2017-06-05T03:19:58.538Z,11.70
2017-06-05T03:22:26.798Z,11.70
2017-06-05T03:24:54.267Z,11.70
2017-06-05T03:27:22.491Z,11.60
2017-06-05T03:29:49.959Z,11.60
2017-06-05T03:32:17.438Z,11.60
2017-06-05T03:34:44.903Z,11.60
2017-06-05T03:37:13.139Z,11.80
2017-06-05T03:39:40.604Z,11.70
2017-06-05T03:42:08.088Z,11.80
2017-06-05T03:44:35.543Z,11.80
2017-06-05T03:47:03.098Z,11.90
2017-06-05T03:49:30.660Z,12.00
2017-06-05T03:51:58.124Z,12.00
2017-06-05T03:54:26.392Z,12.40
2017-06-05T03:56:53.854Z,12.30
2017-06-05T03:59:22.120Z,12.50
2017-06-05T04:01:49.589Z,12.50
2017-06-05T04:04:17.035Z,12.40
2017-06-05T04:06:44.490Z,12.30
2017-06-05T04:09:11.945Z,12.20
2017-06-05T04:11:39.511Z,12.20
2017-06-05T04:14:07.778Z,12.60
2017-06-05T04:16:35.238Z,12.60
2017-06-05T04:19:02.800Z,12.80
2017-06-05T04:21:30.269Z,12.70
2017-06-05T04:23:58.511Z,12.50
2017-06-05T04:26:25.985Z,12.40
2017-06-05T04:28:53.542Z,12.40
2017-06-05T07:32:39.596Z,14.80
2017-06-05T07:35:07.823Z,14.80
2017-06-05T07:37:35.311Z,14.80
2017-06-05T07:40:02.862Z,14.70
2017-06-05T07:42:30.331Z,14.60
2017-06-05T07:44:57.888Z,14.50
2017-06-05T07:47:25.355Z,14.50
2017-06-05T07:49:53.588Z,14.50
2017-06-05T07:52:21.075Z,14.50
2017-06-05T07:54:48.607Z,14.60
2017-06-05T07:57:16.088Z,14.70
2017-06-05T07:59:43.556Z,14.60
2017-06-05T08:02:11.016Z,14.50
2017-06-05T08:04:39.250Z,14.30
2017-06-05T08:07:06.711Z,14.30
2017-06-05T08:09:34.208Z,14.60
2017-06-05T08:12:02.434Z,14.50
2017-06-05T08:14:29.907Z,14.50
2017-06-05T08:16:57.379Z,14.60
2017-06-05T08:19:24.843Z,14.40
2017-06-05T08:21:52.309Z,14.40
2017-06-05T08:24:20.539Z,14.80
2017-06-05T08:26:47.998Z,14.70
2017-06-05T08:29:15.464Z,14.70
2017-06-05T08:31:43.043Z,14.70
2017-06-05T08:34:10.515Z,14.60
2017-06-05T08:36:38.746Z,14.60
2017-06-05T08:39:06.220Z,14.60
2017-06-05T08:41:33.687Z,14.80
2017-06-05T08:44:01.150Z,14.90
2017-06-05T08:46:29.409Z,15.00
2017-06-05T08:48:56.878Z,15.00
2017-06-05T08:51:24.335Z,15.00
2017-06-05T08:53:52.571Z,15.00
2017-06-05T08:56:20.035Z,15.00
2017-06-05T08:58:47.498Z,15.20
2017-06-05T09:01:14.965Z,15.10
2017-06-05T09:03:42.436Z,14.90
2017-06-05T09:06:09.895Z,14.80
2017-06-05T09:08:38.159Z,14.70
2017-06-05T09:11:05.619Z,14.70
2017-06-05T09:13:33.854Z,14.90
2017-06-05T09:16:01.324Z,14.90
2017-06-05T09:18:28.782Z,14.80
2017-06-05T09:20:56.249Z,14.70
2017-06-05T09:23:23.730Z,14.50
2017-06-05T09:25:51.955Z,14.20
2017-06-05T09:28:19.419Z,14.20
2017-06-05T09:30:46.887Z,14.30
2017-06-05T09:33:14.367Z,14.50
2017-06-05T09:35:41.920Z,14.40
2017-06-05T09:38:09.374Z,14.40
2017-06-05T09:40:36.845Z,14.30
2017-06-05T09:43:05.109Z,14.60
2017-06-05T09:45:32.659Z,14.60
2017-06-05T09:48:00.219Z,14.80
2017-06-05T09:50:27.687Z,14.90
2017-06-05T09:52:55.910Z,14.90
2017-06-05T09:55:23.368Z,14.90
2017-06-05T09:57:50.837Z,14.70
2017-06-05T10:00:18.333Z,14.60
2017-06-05T10:02:46.554Z,14.70
2017-06-05T10:05:14.015Z,14.70
2017-06-05T10:07:41.467Z,15.00
2017-06-05T10:10:08.922Z,15.50
2017-06-05T10:12:36.383Z,15.60
2017-06-05T10:15:03.847Z,15.60
2017-06-05T10:17:31.312Z,16.00
2017-06-05T10:19:58.790Z,15.90
2017-06-05T10:22:26.258Z,16.10
2017-06-05T10:24:54.488Z,16.70
2017-06-05T10:27:21.943Z,16.60
2017-06-05T10:29:49.403Z,17.10
2017-06-05T10:32:16.891Z,17.50
2017-06-05T10:34:44.351Z,17.70
2017-06-05T10:37:11.902Z,17.30
2017-06-05T10:39:39.459Z,17.40
2017-06-05T10:42:06.923Z,17.70
2017-06-05T10:44:34.475Z,17.60
2017-06-05T10:47:01.941Z,17.60
2017-06-05T10:49:29.495Z,17.70
2017-06-05T10:51:56.959Z,18.00
2017-06-05T10:54:25.192Z,16.90
2017-06-05T10:56:52.647Z,16.90
2017-06-05T10:59:20.105Z,16.90
2017-06-05T11:01:47.589Z,16.90
2017-06-05T11:04:15.054Z,16.80
2017-06-05T11:06:42.606Z,17.10
2017-06-05T11:09:10.089Z,16.90
2017-06-05T11:11:38.307Z,16.70
2017-06-05T11:14:05.767Z,16.70
2017-06-05T11:16:33.224Z,16.90
2017-06-05T11:19:00.688Z,16.80
2017-06-05T11:21:28.176Z,17.00
2017-06-05T11:23:55.715Z,17.20
2017-06-05T11:26:23.180Z,17.60
2017-06-05T11:28:50.639Z,17.90
2017-06-05T11:31:18.096Z,17.40
2017-06-05T11:33:45.562Z,17.00
2017-06-05T11:36:13.105Z,17.20
2017-06-05T11:38:40.668Z,16.90
2017-06-05T11:41:08.238Z,17.50
2017-06-05T11:43:35.683Z,17.70
2017-06-05T11:46:03.231Z,18.40
2017-06-05T11:48:30.695Z,19.00
2017-06-05T11:50:58.252Z,19.40
2017-06-05T11:53:25.710Z,19.90
2017-06-05T11:55:53.163Z,19.90
2017-06-05T11:58:20.614Z,20.00
2017-06-05T12:00:48.075Z,19.60
2017-06-05T12:03:15.527Z,19.80
2017-06-05T12:05:42.978Z,20.10
2017-06-05T12:08:10.434Z,20.20
2017-06-05T12:10:37.887Z,20.10
2017-06-05T12:13:05.334Z,20.10
2017-06-05T12:15:33.101Z,19.80
2017-06-05T12:18:00.583Z,20.00
2017-06-05T12:20:28.043Z,20.00
2017-06-05T12:22:55.495Z,20.00
2017-06-05T12:25:22.947Z,20.00
2017-06-05T12:27:50.425Z,20.10
2017-06-05T12:30:18.678Z,20.40
2017-06-05T12:32:46.136Z,20.40
2017-06-05T12:35:13.586Z,20.30
2017-06-05T12:37:41.046Z,20.50
2017-06-05T12:40:08.498Z,20.50
2017-06-05T12:42:35.946Z,20.00
2017-06-05T12:45:03.402Z,20.10
2017-06-05T12:47:30.850Z,20.60
2017-06-05T12:49:58.330Z,20.90
2017-06-05T12:52:25.786Z,20.80
2017-06-05T12:54:53.347Z,20.00
2017-06-05T12:57:20.799Z,19.70
2017-06-05T12:59:48.247Z,19.80
2017-06-05T13:02:15.815Z,20.10
2017-06-05T13:04:43.275Z,20.50
2017-06-05T13:07:10.731Z,20.60
2017-06-05T13:09:38.215Z,20.90
2017-06-05T13:12:06.457Z,21.10
2017-06-05T13:14:33.913Z,21.10
2017-06-05T13:17:01.467Z,21.30
2017-06-05T13:19:28.923Z,21.50
2017-06-05T13:21:56.388Z,20.80
2017-06-05T13:24:23.851Z,20.80
2017-06-05T13:26:51.307Z,21.10
2017-06-05T13:29:18.766Z,20.80
2017-06-05T13:31:46.215Z,20.20
2017-06-05T13:34:13.772Z,20.20
2017-06-05T13:36:41.327Z,20.30
2017-06-05T13:39:08.787Z,20.50
2017-06-05T13:41:36.340Z,20.70
2017-06-05T13:44:03.786Z,20.80
2017-06-05T13:46:31.359Z,20.60
2017-06-05T13:48:58.823Z,20.60
2017-06-05T13:51:26.377Z,20.30
2017-06-05T13:53:53.826Z,20.20
2017-06-05T13:56:21.282Z,19.70
2017-06-05T13:58:48.742Z,19.60
2017-06-05T14:01:16.192Z,20.30
2017-06-05T14:03:43.759Z,20.90
2017-06-05T14:06:11.212Z,21.20
2017-06-05T14:08:38.671Z,21.60
2017-06-05T14:11:06.138Z,22.30
2017-06-05T14:13:33.592Z,23.00
2017-06-05T14:16:01.035Z,22.30
2017-06-05T14:18:28.498Z,21.50
2017-06-05T14:20:55.942Z,21.20
2017-06-05T14:23:23.395Z,20.80
2017-06-05T14:25:50.847Z,20.90
2017-06-05T14:28:18.423Z,20.30
2017-06-05T14:30:45.878Z,19.90
2017-06-05T14:33:13.356Z,20.10
2017-06-05T14:35:41.585Z,19.90
2017-06-05T14:38:09.047Z,19.90
2017-06-05T14:40:36.536Z,19.80
2017-06-05T14:43:04.075Z,19.70
2017-06-05T14:45:31.541Z,19.80
2017-06-05T14:47:58.994Z,19.90
2017-06-05T14:50:26.447Z,19.50
2017-06-05T14:52:53.902Z,19.40
2017-06-05T14:55:21.367Z,19.70
2017-06-05T14:57:48.819Z,19.80
2017-06-05T15:00:16.273Z,20.10
2017-06-05T15:02:43.719Z,20.60
2017-06-05T15:05:11.176Z,20.80
2017-06-05T15:07:38.627Z,20.80
2017-06-05T15:10:06.100Z,20.90
2017-06-05T15:12:33.562Z,20.80
2017-06-05T15:15:01.022Z,20.70
2017-06-05T15:17:29.290Z,20.60
2017-06-05T15:19:56.742Z,20.70
2017-06-05T15:22:24.207Z,20.60
2017-06-05T15:24:51.753Z,20.50
2017-06-05T15:27:19.314Z,20.40
2017-06-05T15:29:46.771Z,20.50
2017-06-05T15:32:14.223Z,20.30
2017-06-05T15:34:41.674Z,20.50
2017-06-05T15:37:09.128Z,20.30
2017-06-05T15:39:36.587Z,20.00
2017-06-05T15:42:04.039Z,19.90
2017-06-05T15:44:31.492Z,20.40
2017-06-05T15:46:58.962Z,20.50
2017-06-05T15:49:26.423Z,20.70
2017-06-05T15:51:53.879Z,21.00
2017-06-05T15:54:21.443Z,21.40
2017-06-05T15:56:48.927Z,21.50
2017-06-05T15:59:16.386Z,21.40
2017-06-05T16:01:43.830Z,21.50
2017-06-05T16:04:12.083Z,21.40
2017-06-05T16:06:39.540Z,21.40
2017-06-05T16:09:06.991Z,21.50
2017-06-05T16:11:34.450Z,21.50
2017-06-05T16:14:01.903Z,21.60
2017-06-05T16:16:29.359Z,21.90
2017-06-05T16:18:56.818Z,21.90
2017-06-05T16:21:24.278Z,22.20
2017-06-05T16:23:51.740Z,22.40
2017-06-05T16:26:19.178Z,22.50
2017-06-05T16:28:46.638Z,22.40
2017-06-05T16:31:14.100Z,22.20
2017-06-05T16:33:41.546Z,21.90
2017-06-05T16:36:09.107Z,22.30
2017-06-05T16:38:36.583Z,22.30
2017-06-05T16:41:04.811Z,22.40
2017-06-05T16:43:32.264Z,22.40
2017-06-05T16:45:59.731Z,22.20
2017-06-05T16:48:27.215Z,22.40
2017-06-05T16:50:54.766Z,23.30
2017-06-05T16:53:22.237Z,23.20
2017-06-05T16:55:49.692Z,22.80
2017-06-05T16:58:17.240Z,23.00
2017-06-05T17:00:44.694Z,23.20
2017-06-05T17:03:12.155Z,23.70
2017-06-05T17:05:39.611Z,23.00
2017-06-05T17:08:07.173Z,22.80
2017-06-05T17:10:34.626Z,23.80
2017-06-05T17:13:02.079Z,23.50
2017-06-05T17:15:29.535Z,22.40
2017-06-05T17:17:57.000Z,22.40
2017-06-05T17:20:24.475Z,22.60
2017-06-05T17:22:52.689Z,22.60
2017-06-05T17:25:20.188Z,22.60
2017-06-05T17:27:47.635Z,22.20
2017-06-05T17:30:15.096Z,21.90
2017-06-05T17:32:42.555Z,21.20
2017-06-05T17:35:10.007Z,20.80
2017-06-05T17:37:37.480Z,20.30
2017-06-05T17:40:05.699Z,19.80
2017-06-05T17:42:33.151Z,19.80
2017-06-05T17:45:00.646Z,19.70
2017-06-05T17:47:28.111Z,19.70
2017-06-05T17:49:55.662Z,19.70
2017-06-05T17:52:23.119Z,19.70
2017-06-05T17:54:50.679Z,19.60
2017-06-05T17:57:18.137Z,19.50
2017-06-05T17:59:45.690Z,19.40
2017-06-05T18:02:13.152Z,19.30
2017-06-05T18:04:40.603Z,19.20
2017-06-05T18:07:08.160Z,19.10
2017-06-05T18:09:35.620Z,19.10
2017-06-05T18:12:03.075Z,19.10
2017-06-05T18:14:30.535Z,19.10
2017-06-05T18:16:58.090Z,19.00
2017-06-05T18:19:25.546Z,18.90
2017-06-05T18:21:53.000Z,18.90
2017-06-05T18:24:20.564Z,18.80
2017-06-05T18:26:48.021Z,18.60
2017-06-05T18:29:15.470Z,18.60
2017-06-05T18:31:42.927Z,18.50
2017-06-05T18:34:10.389Z,18.40
2017-06-05T18:36:38.623Z,18.40
2017-06-05T18:39:06.107Z,18.40
2017-06-05T18:41:33.563Z,18.30
2017-06-05T18:44:01.127Z,18.30
2017-06-05T18:46:28.587Z,18.20
2017-06-05T18:48:56.034Z,18.20
2017-06-05T18:51:23.599Z,18.20
2017-06-05T18:53:51.062Z,18.10
2017-06-05T18:56:18.511Z,17.90
2017-06-05T18:58:45.971Z,17.80
2017-06-05T19:01:13.429Z,17.80
2017-06-05T19:03:40.882Z,17.70
2017-06-05T19:06:08.337Z,17.60
2017-06-05T19:08:35.791Z,17.50
2017-06-05T19:11:03.260Z,17.40
2017-06-05T19:13:31.482Z,17.40
2017-06-05T19:15:58.938Z,17.30
2017-06-05T19:18:26.438Z,17.30
2017-06-05T19:20:53.894Z,17.30
2017-06-05T19:23:21.355Z,17.20
2017-06-05T19:25:48.815Z,17.20
2017-06-05T19:28:17.046Z,17.10
2017-06-05T19:30:44.538Z,17.00
2017-06-05T19:33:12.011Z,17.00
2017-06-05T19:35:40.240Z,16.80
2017-06-05T19:38:07.727Z,16.80
2017-06-05T19:40:35.183Z,16.80
2017-06-05T19:43:02.749Z,16.70
2017-06-05T19:45:30.209Z,16.70
2017-06-05T19:47:58.435Z,16.70
2017-06-05T19:50:25.934Z,16.60
2017-06-05T19:52:54.207Z,16.40
2017-06-05T19:55:21.762Z,16.40
2017-06-05T19:57:49.236Z,16.20
2017-06-05T20:00:17.458Z,16.00
2017-06-05T20:02:44.927Z,16.00
2017-06-05T20:05:12.392Z,16.00
2017-06-05T20:07:39.967Z,16.00
2017-06-05T20:10:07.515Z,16.00
2017-06-05T20:12:34.983Z,15.90
2017-06-05T20:15:02.443Z,15.80
2017-06-05T20:17:29.902Z,15.60
2017-06-05T20:19:58.167Z,15.40
2017-06-05T20:22:25.727Z,15.40
2017-06-05T20:24:53.293Z,15.30
2017-06-05T20:27:21.535Z,15.10
2017-06-05T20:29:49.018Z,15.10
2017-06-05T20:32:16.493Z,15.00
2017-06-05T20:34:44.751Z,15.00
2017-06-05T20:37:12.215Z,14.90
2017-06-05T20:39:40.447Z,14.90
2017-06-05T20:42:07.915Z,14.90
2017-06-05T20:44:35.494Z,14.80
2017-06-05T20:47:02.955Z,14.70
2017-06-05T20:49:30.514Z,14.70
2017-06-05T20:51:58.075Z,14.60
2017-06-05T20:54:25.627Z,14.50
2017-06-05T20:56:53.182Z,14.40
2017-06-05T20:59:20.642Z,14.40
2017-06-05T21:01:48.198Z,14.40
2017-06-05T21:04:15.760Z,14.40
2017-06-05T21:06:43.228Z,14.30
2017-06-05T21:09:11.489Z,14.10
2017-06-05T21:11:38.949Z,14.10
2017-06-05T21:14:06.502Z,14.10
2017-06-05T21:16:33.963Z,14.00
2017-06-05T21:19:01.428Z,14.00
2017-06-05T21:21:29.662Z,13.90
2017-06-05T21:23:57.114Z,13.80
2017-06-05T21:26:24.582Z,13.80
2017-06-05T21:28:52.042Z,13.80
2017-06-05T21:31:19.503Z,13.80
2017-06-05T21:33:47.074Z,13.70
2017-06-05T21:36:14.550Z,13.80
2017-06-05T21:38:42.774Z,13.80
2017-06-05T21:41:10.261Z,13.80
2017-06-05T21:43:37.727Z,13.70
2017-06-05T21:46:05.958Z,13.60
2017-06-05T21:48:33.421Z,13.60
2017-06-05T21:51:00.902Z,13.60
2017-06-05T21:53:28.462Z,13.50
2017-06-05T21:55:55.934Z,13.60
2017-06-05T21:58:24.200Z,13.50
2017-06-05T22:03:12.558Z,13.60
2017-06-05T22:05:40.115Z,13.50
2017-06-05T22:08:07.580Z,13.40
2017-06-05T22:10:35.820Z,13.40
2017-06-05T22:13:03.284Z,13.40
2017-06-05T22:15:30.862Z,13.40
2017-06-05T22:17:58.422Z,13.30
2017-06-05T22:20:25.880Z,13.30
2017-06-05T22:22:53.438Z,13.20
2017-06-05T22:25:20.900Z,13.10
2017-06-05T22:27:49.157Z,13.00
2017-06-05T22:30:16.631Z,13.00
2017-06-05T22:32:44.091Z,12.90
2017-06-05T22:35:12.321Z,12.90
2017-06-05T22:37:39.779Z,12.80
2017-06-05T22:40:07.245Z,12.90
2017-06-05T22:42:34.707Z,12.90
2017-06-05T22:45:02.175Z,12.80
2017-06-05T22:47:29.647Z,12.80
2017-06-05T22:49:57.879Z,12.70
2017-06-05T22:52:25.550Z,12.70
2017-06-05T22:54:53.026Z,12.70
2017-06-05T22:57:20.502Z,12.60
2017-06-05T22:59:48.735Z,12.50
2017-06-05T23:02:16.199Z,12.50
2017-06-05T23:04:43.675Z,12.50
2017-06-05T23:07:11.138Z,12.40
2017-06-05T23:09:39.372Z,12.30
2017-06-05T23:12:06.836Z,12.30
2017-06-05T23:14:34.300Z,12.40
2017-06-05T23:17:01.871Z,12.40
2017-06-05T23:19:29.332Z,12.30
2017-06-05T23:21:56.794Z,12.30
2017-06-05T23:24:24.256Z,12.40
2017-06-05T23:26:51.723Z,12.40
2017-06-05T23:29:19.941Z,12.30
2017-06-05T23:31:47.535Z,12.20
2017-06-05T23:34:14.999Z,12.30
2017-06-05T23:36:43.267Z,12.20
2017-06-05T23:39:10.831Z,12.20
2017-06-05T23:41:38.380Z,12.20
2017-06-05T23:44:05.842Z,12.20
2017-06-05T23:46:33.306Z,12.20
2017-06-05T23:49:00.855Z,12.20
2017-06-05T23:51:28.321Z,12.10
2017-06-05T23:53:56.583Z,12.10
2017-06-05T23:56:24.051Z,12.10
2017-06-05T23:58:51.607Z,12.00
